UUDD

Domodedovo International Airport

Moscow, Russian Federation
TAF UUDD 140157Z 1403/1509 04005MPS 6000 BKN011 TXM04/1409Z TNM06/1505Z TEMPO 1403/1413 3100 -SN BR FEW005 OVC008 PROB40 TEMPO 1403/1413 -FZDZ OVC005
Issued Valid From Valid To
Dec-14 @ 01:57 UTC
(an hour ago)
Dec-14 @ 03:00 UTC
(6 minutes ago)
Dec-15 @ 09:00 UTC
(-1 days ago)
Dec-14 @ 03:00 to Dec-15 @ 09:00
TAF UUDD 140157Z 1403/1509 04005MPS 6000 BKN011 TXM04/1409Z TNM06/1505Z
Wind Visibility Clouds
40° at 10 knots 6,003 meters
  • Broken at 1,100' AGL
Temporary  (Probability 40%) Dec-14 @ 03:00 to Dec-14 @ 13:00
PROB40 TEMPO 1403/1413 -FZDZ OVC005
Clouds Conditions
  • Overcast at 500' AGL
  • Light Freezing
  • Light Drizzle
Temporary Dec-14 @ 03:00 to Dec-14 @ 13:00
TEMPO 1403/1413 3100 -SN BR FEW005 OVC008
Visibility Clouds Conditions
3,106 meters
  • Few at 500' AGL
  • Overcast at 800' AGL
  • Light Snow
  • Mist
TAF UUDD 140157Z 1403/1509 04005MPS 6000 BKN011 TXM04/1409Z TNM06/1505Z TEMPO 1403/1413 3100 -SN BR FEW005 OVC008 PROB40 TEMPO 1403/1413 -FZDZ OVC005
Issued Dec-14 @ 01:57 UTC
(an hour ago)
Valid From Dec-14 @ 03:00 UTC
(6 minutes ago)
Valid To Dec-15 @ 09:00 UTC
(-1 days ago)
Dec-14 @ 03:00 - Dec-15 @ 09:00
Wind Visibility
40° at 10 knots 6,003 meters
Clouds
  • Broken at 1,100' AGL
Probability 40% Temporary Dec-14 @ 03:00 - Dec-14 @ 13:00
Clouds
  • Overcast at 500' AGL
Conditions
  • Light Freezing
  • Light Drizzle
Temporary Dec-14 @ 03:00 - Dec-14 @ 13:00
Clouds
  • Few at 500' AGL
  • Overcast at 800' AGL
Conditions
  • Light Snow
  • Mist